createdAt,value
2023-02-11T00:01:32.224Z,98862.03
2023-02-11T00:04:05.556Z,98849.44
2023-02-11T00:06:37.229Z,98850.44
2023-02-11T00:09:10.436Z,98844.72
2023-02-11T00:11:42.051Z,98843.44
2023-02-11T00:14:13.688Z,98845.91
2023-02-11T00:16:45.326Z,98844.31
2023-02-11T00:19:16.929Z,98846.09
2023-02-11T00:21:48.535Z,98853.75
2023-02-11T00:24:20.155Z,98844.25
2023-02-11T00:26:51.868Z,98848.72
2023-02-11T00:29:23.686Z,98846.25
2023-02-11T00:31:55.365Z,98845.81
2023-02-11T00:34:28.931Z,98838.63
2023-02-11T00:37:00.525Z,98833.84
2023-02-11T00:39:32.588Z,98832.56
2023-02-11T00:42:04.359Z,98835.38
2023-02-11T00:44:35.988Z,98834.25
2023-02-11T00:47:07.567Z,98829.44
2023-02-11T00:49:39.300Z,98823.34
2023-02-11T00:52:10.942Z,98825.03
2023-02-11T00:54:42.600Z,98824.19
2023-02-11T00:57:14.294Z,98812.78
2023-02-11T00:59:45.967Z,98816.13
2023-02-11T01:02:17.612Z,98809.88
2023-02-11T01:04:49.267Z,98808.84
2023-02-11T01:07:21.060Z,98803.88
2023-02-11T01:09:53.473Z,98806.34
2023-02-11T01:12:25.683Z,98810.78
2023-02-11T01:14:57.291Z,98803.75
2023-02-11T01:17:28.983Z,98797.31
2023-02-11T01:20:07.385Z,98799.53
2023-02-11T01:22:39.080Z,98804.63
2023-02-11T01:25:10.812Z,98818.66
2023-02-11T01:27:42.828Z,98816.97
2023-02-11T01:30:14.835Z,98809.09
2023-02-11T01:32:46.471Z,98805.44
2023-02-11T01:35:18.153Z,98803.56
2023-02-11T01:37:49.717Z,98812.28
2023-02-11T01:40:22.857Z,98807.84
2023-02-11T01:42:54.528Z,98805.38
2023-02-11T01:45:44.533Z,98804.38
2023-02-11T01:48:32.437Z,98798.25
2023-02-11T01:51:16.780Z,98807.94
2023-02-11T01:53:50.981Z,98809.75
2023-02-11T01:56:26.121Z,98806.59
2023-02-11T01:59:06.240Z,98803.38
2023-02-11T02:01:44.887Z,98802.50
2023-02-11T02:04:19.262Z,98796.16
2023-02-11T02:06:57.980Z,98789.25
2023-02-11T02:09:39.510Z,98792.00
2023-02-11T02:12:11.214Z,98788.56
2023-02-11T02:14:43.110Z,98787.06
2023-02-11T02:17:36.961Z,98791.19
2023-02-11T02:20:34.679Z,98782.47
2023-02-11T02:23:27.750Z,98783.38
2023-02-11T02:26:37.885Z,98777.25
2023-02-11T02:29:46.652Z,98780.38
2023-02-11T02:32:39.685Z,98782.97
2023-02-11T02:35:39.077Z,98774.22
2023-02-11T02:38:20.701Z,98769.88
2023-02-11T02:40:56.609Z,98768.69
2023-02-11T02:43:30.623Z,98756.41
2023-02-11T02:46:25.121Z,98758.28
2023-02-11T02:48:58.514Z,98765.16
2023-02-11T02:51:58.253Z,98766.69
2023-02-11T02:55:05.796Z,98756.66
2023-02-11T02:57:58.612Z,98751.50
2023-02-11T03:00:38.558Z,98745.59
2023-02-11T03:03:29.276Z,98754.88
2023-02-11T03:06:50.325Z,98754.06
2023-02-11T03:09:40.213Z,98752.19
2023-02-11T03:12:14.515Z,98752.09
2023-02-11T03:14:52.292Z,98749.03
2023-02-11T03:17:28.246Z,98747.25
2023-02-11T03:20:02.259Z,98752.72
2023-02-11T03:22:59.783Z,98752.22
2023-02-11T03:25:48.755Z,98748.72
2023-02-11T03:28:49.506Z,98750.41
2023-02-11T03:32:04.250Z,98744.97
2023-02-11T03:35:03.798Z,98735.16
2023-02-11T03:37:43.718Z,98739.31
2023-02-11T03:40:26.892Z,98737.41
2023-02-11T03:43:09.714Z,98736.00
2023-02-11T03:45:41.711Z,98731.91
2023-02-11T03:48:40.694Z,98739.34
2023-02-11T03:51:16.125Z,98734.97
2023-02-11T03:53:52.596Z,98722.78
2023-02-11T03:56:30.040Z,98731.22
2023-02-11T03:59:01.766Z,98724.19
2023-02-11T04:01:33.752Z,98724.28
2023-02-11T04:04:06.520Z,98723.03
2023-02-11T04:06:38.360Z,98722.03
2023-02-11T04:09:11.424Z,98719.66
2023-02-11T04:11:43.103Z,98722.91
2023-02-11T04:14:14.757Z,98715.78
2023-02-11T04:16:46.405Z,98724.00
2023-02-11T04:19:18.004Z,98715.13
2023-02-11T04:21:49.546Z,98725.44
2023-02-11T04:24:21.139Z,98720.34
2023-02-11T04:26:52.740Z,98721.81
2023-02-11T04:29:24.548Z,98716.19
2023-02-11T04:31:56.254Z,98713.63
2023-02-11T04:34:28.091Z,98723.75
2023-02-11T04:36:59.696Z,98720.34
2023-02-11T04:39:31.326Z,98721.00
2023-02-11T04:42:03.039Z,98714.03
2023-02-11T04:44:34.638Z,98721.94
2023-02-11T04:47:06.262Z,98725.44
2023-02-11T04:49:37.866Z,98720.88
2023-02-11T04:52:09.534Z,98719.81
2023-02-11T04:54:41.168Z,98717.72
2023-02-11T04:57:12.847Z,98715.88
2023-02-11T04:59:44.722Z,98708.41
2023-02-11T05:02:16.424Z,98709.59
2023-02-11T05:04:48.062Z,98707.88
2023-02-11T05:07:19.685Z,98707.00
2023-02-11T05:09:51.255Z,98708.13
2023-02-11T05:12:22.988Z,98717.81
2023-02-11T05:14:54.583Z,98717.91
2023-02-11T05:17:26.244Z,98710.34
2023-02-11T05:19:57.859Z,98704.09
2023-02-11T05:22:29.415Z,98697.75
2023-02-11T05:25:01.015Z,98698.19
2023-02-11T05:27:32.710Z,98699.75
2023-02-11T05:30:06.152Z,98707.78
2023-02-11T05:32:37.707Z,98691.50
2023-02-11T05:35:09.333Z,98686.72
2023-02-11T05:37:40.977Z,98696.50
2023-02-11T05:40:12.702Z,98690.53
2023-02-11T05:42:44.456Z,98687.50
2023-02-11T05:45:16.273Z,98691.91
2023-02-11T05:47:47.859Z,98693.81
2023-02-11T05:50:19.641Z,98698.16
2023-02-11T05:52:51.835Z,98693.97
2023-02-11T05:55:23.611Z,98693.44
2023-02-11T05:57:55.191Z,98686.19
2023-02-11T06:00:27.470Z,98687.38
2023-02-11T06:02:59.324Z,98682.94
2023-02-11T06:05:33.330Z,98687.16
2023-02-11T06:08:05.113Z,98692.72
2023-02-11T06:10:36.849Z,98689.84
2023-02-11T06:13:08.774Z,98695.78
2023-02-11T06:15:40.415Z,98696.25
2023-02-11T06:18:12.118Z,98700.34
2023-02-11T06:20:43.715Z,98690.03
2023-02-11T06:23:15.364Z,98688.44
2023-02-11T06:25:46.945Z,98687.03
2023-02-11T06:28:18.963Z,98683.94
2023-02-11T06:30:50.591Z,98692.09
2023-02-11T06:33:22.439Z,98695.13
2023-02-11T06:35:53.966Z,98696.53
2023-02-11T06:38:25.611Z,98699.75
2023-02-11T06:40:57.348Z,98700.88
2023-02-11T06:43:28.925Z,98715.38
2023-02-11T06:46:00.553Z,98715.56
2023-02-11T06:48:32.277Z,98716.09
2023-02-11T06:51:06.554Z,98717.00
2023-02-11T06:53:41.820Z,98716.25
2023-02-11T06:56:19.622Z,98714.22
2023-02-11T06:58:55.375Z,98707.03
2023-02-11T07:01:27.718Z,98717.47
2023-02-11T07:03:59.489Z,98716.16
2023-02-11T07:06:31.085Z,98716.63
2023-02-11T07:09:03.864Z,98722.63
2023-02-11T07:11:35.713Z,98727.03
2023-02-11T07:14:08.217Z,98726.59
2023-02-11T07:16:39.922Z,98730.31
2023-02-11T07:19:12.073Z,98736.72
2023-02-11T07:21:43.794Z,98750.44
2023-02-11T07:24:15.579Z,98758.69
2023-02-11T07:26:47.162Z,98756.09
2023-02-11T07:29:18.767Z,98756.97
2023-02-11T07:31:50.471Z,98754.16
2023-02-11T07:34:22.203Z,98755.44
2023-02-11T07:36:53.828Z,98765.59
2023-02-11T07:39:25.910Z,98763.56
2023-02-11T07:41:58.593Z,98768.31
2023-02-11T07:44:31.061Z,98771.00
2023-02-11T07:47:03.324Z,98764.56
2023-02-11T07:49:34.929Z,98762.69
2023-02-11T07:52:06.531Z,98761.38
2023-02-11T07:54:38.141Z,98748.88
2023-02-11T07:57:09.738Z,98747.75
2023-02-11T07:59:41.282Z,98756.25
2023-02-11T08:02:13.008Z,98751.22
2023-02-11T08:04:46.370Z,98742.41
2023-02-11T08:07:18.474Z,98753.13
2023-02-11T08:09:50.077Z,98760.28
2023-02-11T08:12:21.715Z,98753.88
2023-02-11T08:14:53.378Z,98752.50
2023-02-11T08:17:25.011Z,98751.47
2023-02-11T08:19:56.636Z,98746.91
2023-02-11T08:22:30.886Z,98754.06
2023-02-11T08:25:02.497Z,98755.56
2023-02-11T08:27:34.131Z,98751.47
2023-02-11T08:30:06.279Z,98755.38
2023-02-11T08:32:37.815Z,98757.72
2023-02-11T08:35:09.649Z,98764.88
2023-02-11T08:37:41.223Z,98775.50
2023-02-11T08:40:12.819Z,98771.34
2023-02-11T08:42:44.536Z,98778.03
2023-02-11T08:45:16.185Z,98775.09
2023-02-11T08:47:47.848Z,98780.44
2023-02-11T08:50:19.584Z,98776.00
2023-02-11T08:52:51.154Z,98775.69
2023-02-11T08:55:22.789Z,98790.47
2023-02-11T08:57:54.339Z,98784.19
2023-02-11T09:00:26.084Z,98790.78
2023-02-11T09:02:57.763Z,98793.44
2023-02-11T09:05:29.353Z,98790.91
2023-02-11T09:08:00.909Z,98784.16
2023-02-11T09:10:33.177Z,98787.47
2023-02-11T09:13:05.190Z,98778.81
2023-02-11T09:15:37.220Z,98796.25
2023-02-11T09:18:08.931Z,98798.22
2023-02-11T09:20:40.583Z,98807.13
2023-02-11T09:23:12.197Z,98806.72
2023-02-11T09:25:43.996Z,98811.69
2023-02-11T09:28:15.628Z,98815.28
2023-02-11T09:30:47.342Z,98818.63
2023-02-11T09:33:18.969Z,98814.47
2023-02-11T09:35:50.569Z,98806.25
2023-02-11T09:38:22.191Z,98801.44
2023-02-11T09:40:54.019Z,98803.72
2023-02-11T09:43:47.141Z,98801.88
2023-02-11T09:46:21.237Z,98804.47
2023-02-11T09:48:56.186Z,98803.28
2023-02-11T09:51:36.808Z,98813.22
2023-02-11T09:54:28.728Z,98809.44
2023-02-11T09:57:00.441Z,98804.81
2023-02-11T09:59:32.122Z,98817.44
2023-02-11T10:02:18.482Z,98826.34
2023-02-11T10:05:30.502Z,98826.44
2023-02-11T10:08:37.222Z,98827.59
2023-02-11T10:11:31.297Z,98828.19
2023-02-11T10:14:29.665Z,98835.00
2023-02-11T10:17:16.542Z,98833.59
2023-02-11T10:20:03.092Z,98826.78
2023-02-11T10:22:45.316Z,98824.69
2023-02-11T10:25:27.842Z,98821.25
2023-02-11T10:28:02.385Z,98813.97
2023-02-11T10:30:52.916Z,98812.38
2023-02-11T10:33:31.040Z,98805.72
2023-02-11T10:36:04.264Z,98815.72
2023-02-11T10:38:36.713Z,98813.84
2023-02-11T10:41:17.581Z,98811.03
2023-02-11T10:43:50.981Z,98808.03
2023-02-11T10:46:33.023Z,98798.97
2023-02-11T10:49:04.743Z,98796.53
2023-02-11T10:51:36.386Z,98792.41
2023-02-11T10:54:07.957Z,98788.34
2023-02-11T10:56:50.343Z,98777.28
2023-02-11T10:59:30.479Z,98781.41
2023-02-11T11:02:23.766Z,98784.09
2023-02-11T11:05:02.923Z,98780.47
2023-02-11T11:07:36.330Z,98771.75
2023-02-11T11:10:39.674Z,98773.56
2023-02-11T11:13:38.775Z,98767.53
2023-02-11T11:16:13.456Z,98764.47
2023-02-11T11:18:48.945Z,98768.53
2023-02-11T11:21:30.286Z,98762.03
2023-02-11T11:24:04.126Z,98764.19
2023-02-11T11:26:40.816Z,98764.22
2023-02-11T11:29:26.718Z,98761.81
2023-02-11T11:32:02.570Z,98754.94
2023-02-11T11:34:39.848Z,98762.81
2023-02-11T11:37:23.768Z,98754.03
2023-02-11T11:40:10.706Z,98750.81
2023-02-11T11:42:43.267Z,98740.34
2023-02-11T11:45:17.932Z,98744.75
2023-02-11T11:48:24.532Z,98724.75
2023-02-11T11:51:05.849Z,98729.03
2023-02-11T11:54:12.893Z,98730.75
2023-02-11T11:56:59.943Z,98734.72
2023-02-11T11:59:32.163Z,98726.19
2023-02-11T12:02:25.485Z,98725.38
2023-02-11T12:05:09.428Z,98720.47
2023-02-11T12:07:59.022Z,98706.97
2023-02-11T12:11:05.242Z,98705.25
2023-02-11T12:14:23.314Z,98693.38
2023-02-11T12:17:22.847Z,98701.81
2023-02-11T12:20:19.059Z,98691.31
2023-02-11T12:22:50.593Z,98692.19
2023-02-11T12:25:28.479Z,98681.38
2023-02-11T12:28:18.035Z,98688.59
2023-02-11T12:30:57.213Z,98696.72
2023-02-11T12:33:51.614Z,98681.81
2023-02-11T12:36:50.503Z,98685.69
2023-02-11T12:39:27.972Z,98682.28
2023-02-11T12:42:23.052Z,98685.41
2023-02-11T12:45:12.747Z,98681.38
2023-02-11T12:48:12.966Z,98667.75
2023-02-11T12:51:01.212Z,98665.09
2023-02-11T12:53:48.818Z,98668.94
2023-02-11T12:56:36.336Z,98664.47
2023-02-11T12:59:46.896Z,98650.66
2023-02-11T13:02:28.921Z,98647.25
2023-02-11T13:05:17.498Z,98649.09
2023-02-11T13:07:53.410Z,98644.31
2023-02-11T13:10:35.263Z,98638.38
2023-02-11T13:13:36.065Z,98637.94
2023-02-11T13:16:30.224Z,98635.75
2023-02-11T13:19:27.947Z,98630.81
2023-02-11T13:22:19.982Z,98631.47
2023-02-11T13:24:58.774Z,98628.59
2023-02-11T13:27:45.553Z,98628.09
2023-02-11T13:30:34.330Z,98620.91
2023-02-11T13:33:17.112Z,98611.63
2023-02-11T13:36:08.605Z,98610.81
2023-02-11T13:38:40.512Z,98608.13
2023-02-11T13:41:26.943Z,98614.25
2023-02-11T13:44:24.617Z,98606.03
2023-02-11T13:46:58.387Z,98611.50
2023-02-11T13:49:32.656Z,98611.13
2023-02-11T13:52:16.386Z,98620.00
2023-02-11T13:54:52.388Z,98612.59
2023-02-11T13:57:29.332Z,98605.78
2023-02-11T14:00:25.109Z,98600.16
2023-02-11T14:03:12.058Z,98598.09
2023-02-11T14:06:11.690Z,98593.47
2023-02-11T14:09:14.344Z,98590.88
2023-02-11T14:11:47.848Z,98593.63
2023-02-11T14:14:25.546Z,98590.31
2023-02-11T14:16:59.983Z,98590.72
2023-02-11T14:19:41.024Z,98589.56
2023-02-11T14:22:15.341Z,98595.16
2023-02-11T14:24:52.605Z,98588.78
2023-02-11T14:27:44.717Z,98588.25
2023-02-11T14:30:55.937Z,98594.22
2023-02-11T14:33:36.517Z,98598.31
2023-02-11T14:36:37.122Z,98596.81
2023-02-11T14:39:32.523Z,98594.03
2023-02-11T14:42:04.789Z,98588.63
2023-02-11T14:44:36.625Z,98590.38
2023-02-11T14:47:20.921Z,98586.28
2023-02-11T14:49:54.170Z,98578.16
2023-02-11T14:52:27.503Z,98569.75
2023-02-11T14:55:06.211Z,98573.03
2023-02-11T14:57:37.837Z,98574.50
2023-02-11T15:00:21.283Z,98577.16
2023-02-11T15:02:52.995Z,98564.72
2023-02-11T15:05:27.424Z,98563.31
2023-02-11T15:08:04.465Z,98565.94
2023-02-11T15:10:43.037Z,98574.84
2023-02-11T15:13:20.991Z,98577.47
2023-02-11T15:16:00.661Z,98575.19
2023-02-11T15:18:56.344Z,98569.16
2023-02-11T15:21:32.566Z,98571.53
2023-02-11T15:24:25.164Z,98573.19
2023-02-11T15:27:01.421Z,98574.50
2023-02-11T15:29:44.015Z,98575.47
2023-02-11T15:32:18.638Z,98567.94
2023-02-11T15:34:53.709Z,98557.78
2023-02-11T15:37:30.553Z,98564.09
2023-02-11T15:40:20.872Z,98560.03
2023-02-11T15:43:04.466Z,98567.22
2023-02-11T15:45:43.823Z,98569.00
2023-02-11T15:48:37.558Z,98560.94
2023-02-11T15:51:27.049Z,98558.81
2023-02-11T15:54:02.581Z,98556.50
2023-02-11T15:56:40.926Z,98559.63
2023-02-11T15:59:20.683Z,98559.63
2023-02-11T16:01:54.910Z,98566.53
2023-02-11T16:04:28.011Z,98563.53
2023-02-11T16:06:59.646Z,98559.41
2023-02-11T16:09:35.235Z,98558.84
2023-02-11T16:12:25.211Z,98556.84
2023-02-11T16:14:56.926Z,98554.69
2023-02-11T16:17:29.716Z,98560.13
2023-02-11T16:20:01.398Z,98563.81
2023-02-11T16:22:33.263Z,98565.00
2023-02-11T16:25:05.215Z,98558.19
2023-02-11T16:27:41.401Z,98554.84
2023-02-11T16:30:33.298Z,98547.16
2023-02-11T16:33:05.113Z,98554.03
2023-02-11T16:35:36.730Z,98562.28
2023-02-11T16:38:08.294Z,98561.34
2023-02-11T16:40:39.964Z,98567.59
2023-02-11T16:43:12.252Z,98575.28
2023-02-11T16:45:43.890Z,98579.00
2023-02-11T16:48:18.318Z,98579.91
2023-02-11T16:50:53.400Z,98582.72
2023-02-11T16:53:25.365Z,98576.69
2023-02-11T16:55:56.946Z,98575.53
2023-02-11T16:58:28.584Z,98586.28
2023-02-11T17:01:00.724Z,98585.28
2023-02-11T17:03:32.797Z,98588.91
2023-02-11T17:06:04.926Z,98582.44
2023-02-11T17:08:36.562Z,98583.00
2023-02-11T17:11:08.185Z,98580.97
2023-02-11T17:13:39.877Z,98591.50
2023-02-11T17:16:19.386Z,98592.41
2023-02-11T17:18:51.079Z,98587.41
2023-02-11T17:21:22.665Z,98588.31
2023-02-11T17:23:54.321Z,98595.25
2023-02-11T17:26:26.136Z,98597.25
2023-02-11T17:28:57.725Z,98600.06
2023-02-11T17:31:29.404Z,98593.41
2023-02-11T17:34:01.260Z,98591.72
2023-02-11T17:36:33.089Z,98601.66
2023-02-11T17:39:08.108Z,98607.50
2023-02-11T17:41:40.750Z,98612.75
2023-02-11T17:44:12.613Z,98611.31
2023-02-11T17:46:44.254Z,98614.28
2023-02-11T17:49:15.855Z,98619.97
2023-02-11T17:51:47.540Z,98618.13
2023-02-11T17:54:19.562Z,98625.72
2023-02-11T17:56:51.349Z,98626.88
2023-02-11T17:59:23.018Z,98623.88
2023-02-11T18:01:54.556Z,98632.47
2023-02-11T18:04:26.255Z,98642.97
2023-02-11T18:06:58.142Z,98634.09
2023-02-11T18:09:29.759Z,98642.16
2023-02-11T18:12:01.595Z,98640.31
2023-02-11T18:14:33.897Z,98647.06
2023-02-11T18:17:05.535Z,98637.78
2023-02-11T18:19:37.115Z,98651.84
2023-02-11T18:22:08.736Z,98648.44
2023-02-11T18:24:41.495Z,98646.44
2023-02-11T18:27:13.411Z,98642.47
2023-02-11T18:29:45.361Z,98646.84
2023-02-11T18:32:17.042Z,98647.44
2023-02-11T18:34:48.613Z,98650.28
2023-02-11T18:37:20.199Z,98652.19
2023-02-11T18:39:51.872Z,98645.97
2023-02-11T18:42:23.522Z,98647.75
2023-02-11T18:44:55.130Z,98650.78
2023-02-11T18:47:26.729Z,98655.03
2023-02-11T18:49:58.275Z,98651.06
2023-02-11T18:52:29.866Z,98666.53
2023-02-11T18:55:01.468Z,98654.28
2023-02-11T18:57:33.296Z,98655.28
2023-02-11T19:00:07.885Z,98665.69
2023-02-11T19:02:39.532Z,98664.81
2023-02-11T19:05:11.565Z,98671.56
2023-02-11T19:07:43.166Z,98666.44
2023-02-11T19:10:14.806Z,98672.16
2023-02-11T19:12:46.434Z,98672.38
2023-02-11T19:15:18.185Z,98670.56
2023-02-11T19:17:49.850Z,98673.13
2023-02-11T19:20:21.499Z,98677.59
2023-02-11T19:22:53.114Z,98679.72
2023-02-11T19:25:24.665Z,98680.47
2023-02-11T19:27:56.293Z,98673.66
2023-02-11T19:30:28.154Z,98683.44
2023-02-11T19:32:59.728Z,98685.06
2023-02-11T19:35:34.518Z,98679.69
2023-02-11T19:38:06.188Z,98687.78
2023-02-11T19:40:37.727Z,98675.97
2023-02-11T19:43:09.265Z,98677.53
2023-02-11T19:45:40.826Z,98680.84
2023-02-11T19:48:12.820Z,98681.09
2023-02-11T19:50:44.481Z,98690.16
2023-02-11T19:53:16.123Z,98687.31
2023-02-11T19:55:48.822Z,98675.31
2023-02-11T19:58:20.467Z,98674.47
2023-02-11T20:00:52.056Z,98677.53
2023-02-11T20:03:23.622Z,98681.63
2023-02-11T20:05:55.264Z,98671.03
2023-02-11T20:08:26.800Z,98668.38
2023-02-11T20:11:04.990Z,98662.84
2023-02-11T20:13:37.928Z,98663.91
2023-02-11T20:16:12.954Z,98658.03
2023-02-11T20:18:45.793Z,98658.75
2023-02-11T20:21:20.968Z,98662.84
2023-02-11T20:23:53.536Z,98661.66
2023-02-11T20:26:31.725Z,98665.34
2023-02-11T20:29:03.391Z,98672.66
2023-02-11T20:31:35.122Z,98667.94
2023-02-11T20:34:06.812Z,98661.63
2023-02-11T20:36:38.481Z,98657.38
2023-02-11T20:39:11.426Z,98652.84
2023-02-11T20:41:43.042Z,98656.69
2023-02-11T20:44:14.820Z,98654.31
2023-02-11T20:46:46.527Z,98653.63
2023-02-11T20:49:22.202Z,98649.84
2023-02-11T20:51:54.444Z,98650.47
2023-02-11T20:54:26.418Z,98657.97
2023-02-11T20:56:58.025Z,98657.75
2023-02-11T20:59:29.692Z,98654.91
2023-02-11T21:02:01.347Z,98656.91
2023-02-11T21:04:33.683Z,98662.03
2023-02-11T21:07:05.365Z,98660.03
2023-02-11T21:09:36.912Z,98670.13
2023-02-11T21:12:08.491Z,98654.69
2023-02-11T21:14:40.077Z,98656.72
2023-02-11T21:17:12.135Z,98653.84
2023-02-11T21:19:44.008Z,98655.75
2023-02-11T21:22:15.647Z,98650.50
2023-02-11T21:24:47.377Z,98652.56
2023-02-11T21:27:18.990Z,98663.72
2023-02-11T21:29:54.576Z,98668.16
2023-02-11T21:32:26.648Z,98660.63
2023-02-11T21:35:00.546Z,98660.88
2023-02-11T21:37:33.558Z,98663.13
2023-02-11T21:40:05.781Z,98660.47
2023-02-11T21:42:37.366Z,98668.19
2023-02-11T21:45:09.345Z,98661.88
2023-02-11T21:47:40.979Z,98660.47
2023-02-11T21:50:12.577Z,98651.50
2023-02-11T21:52:44.222Z,98657.16
2023-02-11T21:55:16.076Z,98658.38
2023-02-11T21:57:47.673Z,98664.63
2023-02-11T22:00:19.587Z,98660.34
2023-02-11T22:02:51.338Z,98660.31
2023-02-11T22:05:23.451Z,98667.84
2023-02-11T22:07:55.673Z,98668.69
2023-02-11T22:10:27.438Z,98665.34
2023-02-11T22:12:59.132Z,98671.16
2023-02-11T22:15:30.864Z,98667.75
2023-02-11T22:18:02.459Z,98668.88
2023-02-11T22:20:34.114Z,98677.00
2023-02-11T22:23:05.791Z,98668.84
2023-02-11T22:25:37.352Z,98667.00
2023-02-11T22:28:08.966Z,98668.94
2023-02-11T22:30:40.646Z,98673.53
2023-02-11T22:33:12.261Z,98677.72
2023-02-11T22:35:43.924Z,98668.59
2023-02-11T22:38:15.566Z,98669.53
2023-02-11T22:40:47.193Z,98671.56
2023-02-11T22:43:18.856Z,98667.00
2023-02-11T22:45:50.914Z,98671.09
2023-02-11T22:48:23.239Z,98661.22
2023-02-11T22:50:54.993Z,98667.56
2023-02-11T22:53:26.558Z,98658.03
2023-02-11T22:56:05.313Z,98671.94
2023-02-11T22:58:37.213Z,98675.03
2023-02-11T23:01:08.825Z,98672.31
2023-02-11T23:03:40.646Z,98674.91
2023-02-11T23:06:13.197Z,98664.78
2023-02-11T23:08:45.666Z,98665.25
2023-02-11T23:11:21.293Z,98667.47
2023-02-11T23:13:53.904Z,98665.16
2023-02-11T23:16:30.205Z,98664.81
2023-02-11T23:19:06.476Z,98658.59
2023-02-11T23:21:39.056Z,98661.28
2023-02-11T23:24:14.807Z,98659.84
2023-02-11T23:26:46.387Z,98654.34
2023-02-11T23:29:17.954Z,98653.72
2023-02-11T23:31:49.918Z,98658.81
2023-02-11T23:34:21.618Z,98658.38
2023-02-11T23:36:53.315Z,98657.97
2023-02-11T23:39:25.244Z,98650.25
2023-02-11T23:41:56.816Z,98657.94
2023-02-11T23:44:28.476Z,98653.47
2023-02-11T23:47:00.115Z,98648.31
2023-02-11T23:49:31.754Z,98649.94
2023-02-11T23:52:03.845Z,98647.81
2023-02-11T23:54:35.474Z,98645.19
2023-02-11T23:57:07.031Z,98639.22
2023-02-11T23:59:38.689Z,98644.13
